createdAt,value
2022-11-02T00:00:22.537Z,9.60
2022-11-02T00:02:50.802Z,8.50
2022-11-02T00:05:24.838Z,8.40
2022-11-02T00:07:53.915Z,8.40
2022-11-02T00:10:23.205Z,8.30
2022-11-02T00:12:53.749Z,8.30
2022-11-02T00:15:22.131Z,8.30
2022-11-02T00:17:53.132Z,8.20
2022-11-02T00:20:22.454Z,8.50
2022-11-02T00:22:53.550Z,9.20
2022-11-02T00:25:24.396Z,8.20
2022-11-02T00:27:54.265Z,8.80
2022-11-02T00:30:22.796Z,8.00
2022-11-02T00:32:51.777Z,8.10
2022-11-02T00:35:19.881Z,8.00
2022-11-02T00:37:48.000Z,8.00
2022-11-02T00:40:16.171Z,7.70
2022-11-02T00:42:44.270Z,8.50
2022-11-02T00:45:13.871Z,8.00
2022-11-02T00:47:42.058Z,8.00
2022-11-02T00:50:11.297Z,8.40
2022-11-02T00:52:40.913Z,8.00
2022-11-02T00:55:11.060Z,8.50
2022-11-02T00:57:40.621Z,7.20
2022-11-02T01:00:10.610Z,8.30
2022-11-02T01:02:40.882Z,7.40
2022-11-02T01:05:13.085Z,8.20
2022-11-02T01:07:41.359Z,7.70
2022-11-02T01:10:11.456Z,7.40
2022-11-02T01:12:40.040Z,7.50
2022-11-02T01:15:10.358Z,7.50
2022-11-02T01:17:40.119Z,7.50
2022-11-02T01:20:09.847Z,8.80
2022-11-02T01:22:38.008Z,7.50
2022-11-02T01:25:06.532Z,7.50
2022-11-02T01:27:34.724Z,7.40
2022-11-02T01:30:02.906Z,8.70
2022-11-02T01:32:31.625Z,8.70
2022-11-02T01:35:02.771Z,7.30
2022-11-02T01:37:30.958Z,7.30
2022-11-02T01:39:59.141Z,7.30
2022-11-02T01:42:29.108Z,7.20
2022-11-02T01:44:57.349Z,7.30
2022-11-02T01:47:29.408Z,7.20
2022-11-02T01:50:03.958Z,7.20
2022-11-02T01:52:35.504Z,7.80
2022-11-02T01:55:10.878Z,7.20
2022-11-02T01:57:40.813Z,7.20
2022-11-02T02:00:11.722Z,7.30
2022-11-02T02:02:44.416Z,7.20
2022-11-02T02:05:15.601Z,6.30
2022-11-02T02:07:44.069Z,7.70
2022-11-02T02:10:13.389Z,7.40
2022-11-02T02:12:43.854Z,7.30
2022-11-02T02:15:13.352Z,8.60
2022-11-02T02:17:48.087Z,7.50
2022-11-02T02:20:29.888Z,7.20
2022-11-02T02:23:18.072Z,7.20
2022-11-02T02:26:04.063Z,6.10
2022-11-02T02:28:39.068Z,6.90
2022-11-02T02:31:13.859Z,7.10
2022-11-02T02:33:47.504Z,8.10
2022-11-02T02:36:21.435Z,7.10
2022-11-02T02:38:55.582Z,7.40
2022-11-02T02:41:32.159Z,7.10
2022-11-02T02:44:04.266Z,7.10
2022-11-02T02:46:40.536Z,7.10
2022-11-02T02:49:14.830Z,7.00
2022-11-02T02:51:44.321Z,7.10
2022-11-02T02:54:16.250Z,7.10
2022-11-02T02:56:48.200Z,8.20
2022-11-02T02:59:23.634Z,8.30
2022-11-02T03:01:52.253Z,7.10
2022-11-02T03:04:20.399Z,7.80
2022-11-02T03:06:52.930Z,7.30
2022-11-02T03:09:27.742Z,7.20
2022-11-02T03:12:05.945Z,7.00
2022-11-02T03:14:41.106Z,8.30
2022-11-02T03:17:17.533Z,8.60
2022-11-02T03:19:54.202Z,7.10
2022-11-02T03:22:33.851Z,7.30
2022-11-02T03:25:10.732Z,7.90
2022-11-02T03:27:45.257Z,7.30
2022-11-02T03:30:17.847Z,7.30
2022-11-02T03:32:54.141Z,8.40
2022-11-02T03:35:30.255Z,8.40
2022-11-02T03:38:04.455Z,7.40
2022-11-02T03:40:36.609Z,7.40
2022-11-02T03:43:06.820Z,7.50
2022-11-02T03:45:40.610Z,7.90
2022-11-02T03:48:12.681Z,7.60
2022-11-02T03:50:45.662Z,7.30
2022-11-02T03:53:18.390Z,7.50
2022-11-02T03:55:51.391Z,7.50
2022-11-02T03:58:19.579Z,6.70
2022-11-02T04:00:54.035Z,8.90
2022-11-02T04:03:24.501Z,7.70
2022-11-02T04:05:52.855Z,7.80
2022-11-02T04:08:29.939Z,8.80
2022-11-02T04:11:15.207Z,8.00
2022-11-02T04:14:00.488Z,7.90
2022-11-02T04:16:30.257Z,7.90
2022-11-02T04:19:15.572Z,8.00
2022-11-02T04:22:04.080Z,8.00
2022-11-02T04:24:49.582Z,8.00
2022-11-02T04:27:20.988Z,8.50
2022-11-02T04:29:49.723Z,8.30
2022-11-02T04:32:39.983Z,8.10
2022-11-02T04:35:08.450Z,8.10
2022-11-02T04:37:57.853Z,8.10
2022-11-02T04:40:26.088Z,8.10
2022-11-02T04:42:54.200Z,9.40
2022-11-02T04:45:22.272Z,8.10
2022-11-02T04:47:51.708Z,8.20
2022-11-02T04:50:20.126Z,8.10
2022-11-02T04:52:48.228Z,8.10
2022-11-02T04:55:16.450Z,8.10
2022-11-02T04:57:46.576Z,8.10
2022-11-02T05:00:16.028Z,8.20
2022-11-02T05:02:44.254Z,8.20
2022-11-02T05:05:13.923Z,8.10
2022-11-02T05:07:41.979Z,8.20
2022-11-02T05:10:10.340Z,9.20
2022-11-02T05:12:38.540Z,8.10
2022-11-02T05:15:07.553Z,8.20
2022-11-02T05:17:35.811Z,8.20
2022-11-02T05:20:04.894Z,8.20
2022-11-02T05:22:34.343Z,8.20
2022-11-02T05:25:02.478Z,8.40
2022-11-02T05:27:30.525Z,8.30
2022-11-02T05:29:59.991Z,8.30
2022-11-02T05:32:28.996Z,8.30
2022-11-02T05:34:57.091Z,8.30
2022-11-02T05:37:25.644Z,8.30
2022-11-02T05:39:55.114Z,9.00
2022-11-02T05:42:23.142Z,8.40
2022-11-02T05:44:51.180Z,8.40
2022-11-02T05:47:19.356Z,8.40
2022-11-02T05:49:47.438Z,8.40
2022-11-02T05:52:15.494Z,8.40
2022-11-02T05:54:43.682Z,8.50
2022-11-02T05:57:13.759Z,8.50
2022-11-02T05:59:43.908Z,9.70
2022-11-02T06:02:14.857Z,8.60
2022-11-02T06:04:42.880Z,8.50
2022-11-02T06:07:10.999Z,8.60
2022-11-02T06:09:39.421Z,8.60
2022-11-02T06:12:08.758Z,8.60
2022-11-02T06:14:38.221Z,8.60
2022-11-02T06:17:06.427Z,8.60
2022-11-02T06:19:34.429Z,8.60
2022-11-02T06:22:02.656Z,8.60
2022-11-02T06:24:30.694Z,8.50
2022-11-02T06:26:58.736Z,8.50
2022-11-02T06:29:26.728Z,9.00
2022-11-02T06:31:56.165Z,8.50
2022-11-02T06:34:24.394Z,8.50
2022-11-02T06:36:52.502Z,8.50
2022-11-02T06:39:20.537Z,8.50
2022-11-02T06:41:48.577Z,8.50
2022-11-02T06:44:16.694Z,9.10
2022-11-02T06:46:44.765Z,8.50
2022-11-02T06:49:14.220Z,8.50
2022-11-02T06:51:42.209Z,8.50
2022-11-02T06:54:10.235Z,8.60
2022-11-02T06:56:38.278Z,9.20
2022-11-02T06:59:06.494Z,8.60
2022-11-02T07:01:35.403Z,8.70
2022-11-02T07:04:03.953Z,8.70
2022-11-02T07:06:33.538Z,8.70
2022-11-02T07:09:01.633Z,8.70
2022-11-02T07:11:29.671Z,9.20
2022-11-02T07:13:57.749Z,8.70
2022-11-02T07:16:26.332Z,8.80
2022-11-02T07:18:54.494Z,8.70
2022-11-02T07:21:22.552Z,9.40
2022-11-02T07:23:51.991Z,8.70
2022-11-02T07:26:20.045Z,8.90
2022-11-02T07:28:48.209Z,8.80
2022-11-02T07:31:16.221Z,8.80
2022-11-02T07:33:44.366Z,8.80
2022-11-02T07:36:12.372Z,8.80
2022-11-02T07:38:40.822Z,8.90
2022-11-02T07:41:10.427Z,8.90
2022-11-02T07:43:41.400Z,10.00
2022-11-02T07:46:12.445Z,9.10
2022-11-02T07:48:40.478Z,9.00
2022-11-02T07:51:11.158Z,9.00
2022-11-02T07:53:39.857Z,9.10
2022-11-02T07:56:09.821Z,9.20
2022-11-02T07:58:38.119Z,9.20
2022-11-02T08:01:06.332Z,9.20
2022-11-02T08:03:34.492Z,9.40
2022-11-02T08:06:03.514Z,9.50
2022-11-02T08:08:31.660Z,9.40
2022-11-02T08:11:06.042Z,9.40
2022-11-02T08:13:36.142Z,9.70
2022-11-02T08:16:04.229Z,9.20
2022-11-02T08:18:32.872Z,9.40
2022-11-02T08:21:01.647Z,9.30
2022-11-02T08:23:29.730Z,9.30
2022-11-02T08:26:00.352Z,9.40
2022-11-02T08:28:32.261Z,9.40
2022-11-02T08:31:01.684Z,9.60
2022-11-02T08:33:29.772Z,10.00
2022-11-02T08:36:03.499Z,9.90
2022-11-02T08:38:31.571Z,10.10
2022-11-02T08:40:59.685Z,10.20
2022-11-02T08:43:27.837Z,10.10
2022-11-02T08:46:16.137Z,10.20
2022-11-02T08:48:46.265Z,10.40
2022-11-02T08:51:14.335Z,10.70
2022-11-02T08:53:47.099Z,11.10
2022-11-02T08:56:18.439Z,11.30
2022-11-02T08:58:46.499Z,11.50
2022-11-02T09:01:14.847Z,11.80
2022-11-02T09:03:43.162Z,11.90
2022-11-02T09:06:12.604Z,11.50
2022-11-02T09:08:40.741Z,11.30
2022-11-02T09:11:09.205Z,11.10
2022-11-02T09:13:38.923Z,11.30
2022-11-02T09:16:07.631Z,11.60
2022-11-02T09:18:35.705Z,11.80
2022-11-02T09:21:04.311Z,12.10
2022-11-02T09:23:34.145Z,12.40
2022-11-02T09:26:02.248Z,12.80
2022-11-02T09:28:31.083Z,12.80
2022-11-02T09:30:59.262Z,12.60
2022-11-02T09:33:29.791Z,12.60
2022-11-02T09:36:02.483Z,12.70
2022-11-02T09:38:30.790Z,12.70
2022-11-02T09:41:13.025Z,12.80
2022-11-02T09:43:51.967Z,12.90
2022-11-02T09:46:25.286Z,12.70
2022-11-02T09:48:56.831Z,12.70
2022-11-02T09:51:27.816Z,12.90
2022-11-02T09:54:03.265Z,12.80
2022-11-02T09:56:34.582Z,12.60
2022-11-02T09:59:06.862Z,12.50
2022-11-02T10:01:55.732Z,12.70
2022-11-02T10:04:52.489Z,12.80
2022-11-02T10:07:30.741Z,12.70
2022-11-02T10:10:04.752Z,12.90
2022-11-02T10:12:47.261Z,12.90
2022-11-02T10:15:19.736Z,13.00
2022-11-02T10:17:53.716Z,13.30
2022-11-02T10:20:27.637Z,14.00
2022-11-02T10:23:00.673Z,14.50
2022-11-02T10:25:28.764Z,14.80
2022-11-02T10:28:04.639Z,15.20
2022-11-02T10:30:33.701Z,15.40
2022-11-02T10:33:01.998Z,16.00
2022-11-02T10:36:16.401Z,16.90
2022-11-02T10:38:45.903Z,16.90
2022-11-02T10:41:31.080Z,16.40
2022-11-02T10:44:20.669Z,16.10
2022-11-02T10:46:59.767Z,16.00
2022-11-02T10:49:46.628Z,15.20
2022-11-02T10:52:17.382Z,14.70
2022-11-02T10:54:45.560Z,15.20
2022-11-02T10:57:15.490Z,15.70
2022-11-02T10:59:44.890Z,15.30
2022-11-02T11:02:14.668Z,15.20
2022-11-02T11:04:43.776Z,15.30
2022-11-02T11:07:18.001Z,15.20
2022-11-02T11:09:54.038Z,15.30
2022-11-02T11:12:27.332Z,15.30
2022-11-02T11:20:37.586Z,14.50
2022-11-02T11:23:16.402Z,14.30
2022-11-02T11:25:54.359Z,14.10
2022-11-02T11:28:25.464Z,14.00
2022-11-02T11:31:07.084Z,13.80
2022-11-02T11:33:44.401Z,13.80
2022-11-02T11:36:21.538Z,13.60
2022-11-02T11:38:51.233Z,13.60
2022-11-02T11:41:19.866Z,13.60
2022-11-02T11:43:49.933Z,13.90
2022-11-02T11:46:20.024Z,13.90
2022-11-02T11:48:51.437Z,13.90
2022-11-02T11:51:38.737Z,14.10
2022-11-02T11:54:22.199Z,14.10
2022-11-02T11:56:52.008Z,14.20
2022-11-02T11:59:23.097Z,14.20
2022-11-02T12:01:56.088Z,14.30
2022-11-02T12:04:33.198Z,14.30
2022-11-02T12:07:40.275Z,14.40
2022-11-02T12:10:16.469Z,14.50
2022-11-02T12:12:56.167Z,14.60
2022-11-02T12:15:40.000Z,14.70
2022-11-02T12:18:40.601Z,14.80
2022-11-02T12:21:21.983Z,15.00
2022-11-02T12:24:17.923Z,15.10
2022-11-02T12:26:56.946Z,14.90
2022-11-02T12:29:44.180Z,14.90
2022-11-02T12:32:24.509Z,14.90
2022-11-02T12:35:27.903Z,15.10
2022-11-02T12:38:14.781Z,14.70
2022-11-02T12:40:56.166Z,14.90
2022-11-02T12:43:39.245Z,14.90
2022-11-02T12:46:14.580Z,14.50
2022-11-02T12:48:55.551Z,14.50
2022-11-02T12:51:29.277Z,14.70
2022-11-02T12:53:59.775Z,15.00
2022-11-02T12:56:33.703Z,15.20
2022-11-02T12:59:02.193Z,15.10
2022-11-02T13:01:36.729Z,15.10
2022-11-02T13:04:14.614Z,15.20
2022-11-02T13:06:46.757Z,15.00
2022-11-02T13:09:22.710Z,14.80
2022-11-02T13:11:59.528Z,14.80
2022-11-02T13:14:30.854Z,14.70
2022-11-02T13:17:04.250Z,14.50
2022-11-02T13:19:38.957Z,14.50
2022-11-02T13:22:12.481Z,14.30
2022-11-02T13:24:47.673Z,14.10
2022-11-02T13:27:36.862Z,14.00
2022-11-02T13:30:14.152Z,14.20
2022-11-02T13:32:45.632Z,14.20
2022-11-02T13:35:20.047Z,14.20
2022-11-02T13:37:54.809Z,14.20
2022-11-02T13:40:26.122Z,14.20
2022-11-02T13:43:24.209Z,14.20
2022-11-02T13:46:22.980Z,14.10
2022-11-02T13:48:59.526Z,14.40
2022-11-02T13:51:35.170Z,14.50
2022-11-02T13:54:17.706Z,14.40
2022-11-02T13:56:47.065Z,14.50
2022-11-02T13:59:22.821Z,14.30
2022-11-02T14:02:01.200Z,14.20
2022-11-02T14:04:37.925Z,14.60
2022-11-02T14:07:09.393Z,14.90
2022-11-02T14:09:42.591Z,14.80
2022-11-02T14:12:44.029Z,14.80
2022-11-02T14:15:49.035Z,14.50
2022-11-02T14:18:33.434Z,14.20
2022-11-02T14:21:39.950Z,14.20
2022-11-02T14:24:41.491Z,14.20
2022-11-02T14:27:32.033Z,14.10
2022-11-02T14:30:00.423Z,14.20
2022-11-02T14:32:43.544Z,14.60
2022-11-02T14:35:34.778Z,15.10
2022-11-02T14:38:30.165Z,15.50
2022-11-02T14:41:09.413Z,15.70
2022-11-02T14:44:05.269Z,15.70
2022-11-02T14:46:47.456Z,16.10
2022-11-02T14:49:22.020Z,16.10
2022-11-02T14:52:04.188Z,15.90
2022-11-02T14:54:35.406Z,15.90
2022-11-02T14:57:22.524Z,15.90
2022-11-02T14:59:55.544Z,15.60
2022-11-02T15:02:27.923Z,14.90
2022-11-02T15:05:06.298Z,14.30
2022-11-02T15:07:37.647Z,13.90
2022-11-02T15:10:28.590Z,13.60
2022-11-02T15:13:33.767Z,13.20
2022-11-02T15:16:24.340Z,12.90
2022-11-02T15:18:52.676Z,12.60
2022-11-02T15:21:28.920Z,12.30
2022-11-02T15:24:17.981Z,12.10
2022-11-02T15:26:50.313Z,12.00
2022-11-02T15:29:36.062Z,11.80
2022-11-02T15:32:14.310Z,11.70
2022-11-02T15:34:48.641Z,11.50
2022-11-02T15:37:21.376Z,11.40
2022-11-02T15:39:50.605Z,11.30
2022-11-02T15:42:28.708Z,11.10
2022-11-02T15:45:48.984Z,11.00
2022-11-02T15:48:39.061Z,10.80
2022-11-02T15:51:17.369Z,10.60
2022-11-02T15:54:00.157Z,10.50
2022-11-02T15:56:40.411Z,10.40
2022-11-02T15:59:47.233Z,10.30
2022-11-02T16:02:27.557Z,10.20
2022-11-02T16:04:58.315Z,10.10
2022-11-02T16:07:33.247Z,10.00
2022-11-02T16:10:24.256Z,9.90
2022-11-02T16:13:11.770Z,9.80
2022-11-02T16:15:42.314Z,9.80
2022-11-02T16:18:25.952Z,9.60
2022-11-02T16:20:57.097Z,9.70
2022-11-02T16:23:26.944Z,9.40
2022-11-02T16:25:57.441Z,9.60
2022-11-02T16:28:26.932Z,9.20
2022-11-02T16:31:08.073Z,9.20
2022-11-02T16:33:42.014Z,9.10
2022-11-02T16:36:11.808Z,9.00
2022-11-02T16:38:46.153Z,8.90
2022-11-02T16:41:17.247Z,8.80
2022-11-02T16:43:46.798Z,9.00
2022-11-02T16:46:17.991Z,8.70
2022-11-02T16:49:16.402Z,8.60
2022-11-02T16:51:53.868Z,8.50
2022-11-02T16:54:40.514Z,8.40
2022-11-02T16:57:16.397Z,8.40
2022-11-02T16:59:51.686Z,8.70
2022-11-02T17:02:20.616Z,8.30
2022-11-02T17:07:23.454Z,8.10
2022-11-02T17:09:54.089Z,8.10
2022-11-02T17:12:30.089Z,8.00
2022-11-02T17:14:58.906Z,7.90
2022-11-02T17:17:38.187Z,8.60
2022-11-02T17:20:26.427Z,8.80
2022-11-02T17:22:59.757Z,7.70
2022-11-02T17:25:30.058Z,8.70
2022-11-02T17:27:59.449Z,7.60
2022-11-02T17:30:43.525Z,7.50
2022-11-02T17:33:21.773Z,7.50
2022-11-02T17:35:52.682Z,8.60
2022-11-02T17:38:23.897Z,7.30
2022-11-02T17:40:52.479Z,7.70
2022-11-02T17:43:20.541Z,7.20
2022-11-02T17:45:55.220Z,7.30
2022-11-02T17:48:24.478Z,7.20
2022-11-02T17:50:56.080Z,7.00
2022-11-02T17:53:25.136Z,7.00
2022-11-02T17:55:54.469Z,6.90
2022-11-02T17:58:22.513Z,6.80
2022-11-02T18:00:53.794Z,6.80
2022-11-02T18:03:25.440Z,6.70
2022-11-02T18:05:59.787Z,6.70
2022-11-02T18:08:28.438Z,6.90
2022-11-02T18:10:57.153Z,7.00
2022-11-02T18:13:25.644Z,6.60
2022-11-02T18:15:53.763Z,6.70
2022-11-02T18:18:21.997Z,6.60
2022-11-02T18:20:50.133Z,7.70
2022-11-02T18:23:20.448Z,6.40
2022-11-02T18:25:48.797Z,6.40
2022-11-02T18:28:17.033Z,6.30
2022-11-02T18:30:45.675Z,6.30
2022-11-02T18:33:14.462Z,6.40
2022-11-02T18:35:44.300Z,6.50
2022-11-02T18:38:13.036Z,6.00
2022-11-02T18:40:42.529Z,6.00
2022-11-02T18:43:10.732Z,5.90
2022-11-02T18:45:38.811Z,5.90
2022-11-02T18:48:07.909Z,5.80
2022-11-02T18:50:37.504Z,5.80
2022-11-02T18:53:05.683Z,6.10
2022-11-02T18:55:33.892Z,5.70
2022-11-02T18:58:03.707Z,5.70
2022-11-02T19:00:32.043Z,5.60
2022-11-02T19:03:00.169Z,5.60
2022-11-02T19:05:46.084Z,6.00
2022-11-02T19:08:31.610Z,5.50
2022-11-02T19:10:59.846Z,5.70
2022-11-02T19:13:29.398Z,5.50
2022-11-02T19:15:57.488Z,5.50
2022-11-02T19:18:25.639Z,5.40
2022-11-02T19:20:53.735Z,5.40
2022-11-02T19:23:21.913Z,5.30
2022-11-02T19:25:52.763Z,5.30
2022-11-02T19:28:21.196Z,5.30
2022-11-02T19:30:50.919Z,5.20
2022-11-02T19:33:19.054Z,5.10
2022-11-02T19:35:56.150Z,5.70
2022-11-02T19:38:24.645Z,5.10
2022-11-02T19:41:01.739Z,5.00
2022-11-02T19:43:30.039Z,5.70
2022-11-02T19:46:03.556Z,5.00
2022-11-02T19:48:32.539Z,5.00
2022-11-02T19:51:13.463Z,5.10
2022-11-02T19:53:45.838Z,4.90
2022-11-02T19:56:15.336Z,4.80
2022-11-02T19:58:45.582Z,4.80
2022-11-02T20:01:17.647Z,4.70
2022-11-02T20:03:47.277Z,4.70
2022-11-02T20:06:18.110Z,4.70
2022-11-02T20:08:49.578Z,4.60
2022-11-02T20:11:18.124Z,4.60
2022-11-02T20:13:47.306Z,4.60
2022-11-02T20:16:18.297Z,4.80
2022-11-02T20:18:48.632Z,5.10
2022-11-02T20:21:18.513Z,5.30
2022-11-02T20:23:47.578Z,4.40
2022-11-02T20:26:18.598Z,4.40
2022-11-02T20:28:48.422Z,4.40
2022-11-02T20:31:19.758Z,4.60
2022-11-02T20:33:48.748Z,5.60
2022-11-02T20:36:17.451Z,5.50
2022-11-02T20:38:49.293Z,5.00
2022-11-02T20:41:19.175Z,4.30
2022-11-02T20:43:49.048Z,4.50
2022-11-02T20:49:21.074Z,4.20
2022-11-02T20:51:51.205Z,4.20
2022-11-02T20:54:20.083Z,4.30
2022-11-02T20:56:48.407Z,5.10
2022-11-02T20:59:16.849Z,4.10
2022-11-02T21:01:46.702Z,5.40
2022-11-02T21:04:20.351Z,4.00
2022-11-02T21:06:49.558Z,4.50
2022-11-02T21:09:17.866Z,4.00
2022-11-02T21:12:03.147Z,4.00
2022-11-02T21:14:31.228Z,4.00
2022-11-02T21:17:02.550Z,4.00
2022-11-02T21:19:30.730Z,4.00
2022-11-02T21:22:00.167Z,3.90
2022-11-02T21:24:28.895Z,3.90
2022-11-02T21:26:57.343Z,3.90
2022-11-02T21:29:25.499Z,4.20
2022-11-02T21:31:53.504Z,3.90
2022-11-02T21:34:23.059Z,4.10
2022-11-02T21:36:51.205Z,4.60
2022-11-02T21:39:19.325Z,4.80
2022-11-02T21:41:47.461Z,4.20
2022-11-02T21:44:15.559Z,4.00
2022-11-02T21:46:43.679Z,3.80
2022-11-02T21:49:12.980Z,4.20
2022-11-02T21:51:42.986Z,4.60
2022-11-02T21:54:11.636Z,4.80
2022-11-02T21:56:39.894Z,3.60
2022-11-02T21:59:09.552Z,3.60
2022-11-02T22:01:47.904Z,3.60
2022-11-02T22:04:19.568Z,4.30
2022-11-02T22:06:49.386Z,3.80
2022-11-02T22:09:17.678Z,3.60
2022-11-02T22:11:46.100Z,4.80
2022-11-02T22:14:13.867Z,3.60
2022-11-02T22:16:44.852Z,3.60
2022-11-02T22:19:15.301Z,3.60
2022-11-02T22:21:45.307Z,4.00
2022-11-02T22:24:14.844Z,4.40
2022-11-02T22:26:42.930Z,4.10
2022-11-02T22:29:11.145Z,3.60
2022-11-02T22:31:41.867Z,3.70
2022-11-02T22:34:11.635Z,3.70
2022-11-02T22:36:41.564Z,4.10
2022-11-02T22:39:11.994Z,4.10
2022-11-02T22:41:43.090Z,4.90
2022-11-02T22:44:12.773Z,4.50
2022-11-02T22:46:43.732Z,3.90
2022-11-02T22:49:13.492Z,4.00
2022-11-02T22:51:43.673Z,4.30
2022-11-02T22:54:15.515Z,3.80
2022-11-02T22:56:46.042Z,3.80
2022-11-02T22:59:14.642Z,4.10
2022-11-02T23:01:43.207Z,3.90
2022-11-02T23:04:12.896Z,3.90
2022-11-02T23:06:41.182Z,4.00
2022-11-02T23:09:11.374Z,3.80
2022-11-02T23:11:38.802Z,3.90
2022-11-02T23:14:10.534Z,3.70
2022-11-02T23:16:40.366Z,3.70
2022-11-02T23:19:28.543Z,4.00
2022-11-02T23:22:15.851Z,3.80
2022-11-02T23:25:03.151Z,3.90
2022-11-02T23:27:31.968Z,3.80
2022-11-02T23:30:30.420Z,4.70
2022-11-02T23:32:58.531Z,3.90
2022-11-02T23:35:43.992Z,4.00
2022-11-02T23:38:12.462Z,3.70
2022-11-02T23:40:40.534Z,3.70
2022-11-02T23:43:08.742Z,3.60
2022-11-02T23:45:38.475Z,4.60
2022-11-02T23:48:07.560Z,4.10
2022-11-02T23:50:54.033Z,3.80
2022-11-02T23:53:41.267Z,4.80
2022-11-02T23:56:33.600Z,3.90
2022-11-02T23:59:07.929Z,4.00
